ADDS METAR Data INFO
IDs: Format: Raw Decoded Include TAF

Data at: 2149 UTC 16 Oct 2017

KGNC 162135Z AUTO 00000KT 10SM CLR 21/M02 A3035 RMK AO2 T02111021
KGNC 162115Z AUTO 19004KT 10SM CLR 22/M02 A3036 RMK AO2 T02151019
KGNC 162055Z AUTO 00000KT 10SM CLR 21/M03 A3036 RMK AO2 T02071030
KGNC 162035Z AUTO 22007KT 190V280 10SM CLR 21/M04 A3037 RMK AO2 T02081036
KGNC 162015Z AUTO 00000KT 10SM CLR 21/M03 A3038 RMK AO2 T02051029
KGNC 161955Z AUTO 18005KT 10SM CLR 20/M03 A3038 RMK AO2 T02031028
KGNC 161935Z AUTO 20007KT 160V240 10SM CLR 20/M03 A3040 RMK AO2 T01981028
KGNC 161915Z AUTO 16004KT 10SM CLR 20/M03 A3042 RMK AO2 T02001028
KGNC 161855Z AUTO 18005KT 10SM CLR 20/M02 A3043 RMK AO2 T01981020
KGNC 161835Z AUTO 20003KT 10SM CLR 19/M01 A3044 RMK AO2 T01941011
KGNC 161815Z AUTO 18003KT 10SM CLR 18/M01 A3045 RMK AO2 T01841007
KGNC 161755Z AUTO 24005KT 10SM CLR 18/00 A3047 RMK AO2 T01831004 10183 20020
KGNC 161735Z AUTO 16004KT 10SM CLR 18/00 A3048 RMK AO2 T01761003
KGNC 161715Z AUTO 00000KT 10SM CLR 17/M01 A3048 RMK AO2 T01701006
KGNC 161655Z AUTO 00000KT 10SM CLR 16/00 A3050 RMK AO2 T01631004
KGNC 161635Z AUTO 00000KT 10SM CLR 16/M01 A3050 RMK AO2 T01571007
KGNC 161615Z AUTO 19003KT 10SM CLR 15/M02 A3051 RMK AO2 T01501017
KGNC 161555Z AUTO 17003KT 10SM CLR 15/M01 A3052 RMK AO2 T01491013
KGNC 161535Z AUTO 18003KT 10SM CLR 14/00 A3052 RMK AO2 T01441003
KGNC 161515Z AUTO 14003KT 10SM CLR 13/00 A3051 RMK AO2 T01330000
KGNC 161455Z AUTO 00000KT 10SM CLR 12/01 A3051 RMK AO2 T01200014
KGNC 161435Z AUTO 00000KT 10SM CLR 10/03 A3050 RMK AO2 T01000031
KGNC 161415Z AUTO 32003KT 10SM CLR 08/03 A3050 RMK AO2 T00780029
KGNC 161355Z AUTO 32004KT 10SM CLR 06/02 A3050 RMK AO2 T00550020
KGNC 161335Z AUTO 32004KT 10SM CLR 04/01 A3049 RMK AO2 T00350007
KGNC 161315Z AUTO 32004KT 10SM CLR 03/00 A3049 RMK AO2 T00280001
KGNC 161255Z AUTO 32004KT 10SM CLR 02/00 A3048 RMK AO2 T00220000
KGNC 161235Z AUTO 33005KT 10SM CLR 02/00 A3048 RMK AO2 T00200000
KGNC 161215Z AUTO 33005KT 10SM CLR 02/00 A3048 RMK AO2 T00200000
KGNC 161155Z AUTO 33004KT 10SM CLR 02/00 A3047 RMK AO2 T00200000 10082 20020
KGNC 161135Z AUTO 33005KT 10SM CLR 02/00 A3047 RMK AO2 T00240001
KGNC 161115Z AUTO 32005KT 10SM CLR 02/00 A3047 RMK AO2 T00220000
KGNC 161055Z AUTO 32005KT 10SM CLR 03/00 A3047 RMK AO2 T00260001
KGNC 161035Z AUTO 32005KT 10SM CLR 03/00 A3047 RMK AO2 T00270001
KGNC 161015Z AUTO 31006KT 10SM CLR 04/01 A3047 RMK AO2 T00410006
KGNC 160955Z AUTO 30003KT 10SM CLR 04/01 A3047 RMK AO2 T00390005
KGNC 160935Z AUTO 31004KT 10SM CLR 04/01 A3047 RMK AO2 T00370006
KGNC 160915Z AUTO 32005KT 10SM CLR 04/01 A3047 RMK AO2 T00400008
KGNC 160855Z AUTO 32004KT 10SM CLR 04/01 A3048 RMK AO2 T00400007
KGNC 160835Z AUTO 32005KT 10SM CLR 04/01 A3048 RMK AO2 T00400010
KGNC 160815Z AUTO 32004KT 10SM CLR 04/02 A3049 RMK AO2 T00440015
KGNC 160755Z AUTO 00000KT 10SM CLR 06/02 A3049 RMK AO2 T00580017
KGNC 160735Z AUTO 00000KT 10SM CLR 06/02 A3049 RMK AO2 T00600021
KGNC 160715Z AUTO 00000KT 10SM CLR 06/02 A3049 RMK AO2 T00590021
KGNC 160655Z AUTO 00000KT 10SM CLR 07/02 A3049 RMK AO2 T00650023
KGNC 160635Z AUTO 00000KT 10SM CLR 07/02 A3049 RMK AO2 T00660023
KGNC 160615Z AUTO 00000KT 10SM CLR 07/02 A3049 RMK AO2 T00700023
KGNC 160555Z AUTO 00000KT 10SM CLR 08/02 A3049 RMK AO2 T00830020 10180 20083 402300083
KGNC 160535Z AUTO 00000KT 10SM CLR 09/02 A3049 RMK AO2 T00900020
KGNC 160515Z AUTO 00000KT 10SM CLR 09/02 A3049 RMK AO2 T00900018
KGNC 160455Z AUTO 00000KT 10SM CLR 09/02 A3049 RMK AO2 T00910020
KGNC 160435Z AUTO 00000KT 10SM CLR 09/02 A3049 RMK AO2 T00940020
KGNC 160415Z AUTO 00000KT 10SM CLR 10/02 A3048 RMK AO2 T00970021
KGNC 160355Z AUTO 00000KT 10SM CLR 10/02 A3048 RMK AO2 T00950022
KGNC 160335Z AUTO 07003KT 10SM CLR 10/02 A3048 RMK AO2 T01000020
KGNC 160315Z AUTO 08003KT 10SM CLR 10/02 A3047 RMK AO2 T01030020
KGNC 160255Z AUTO 07003KT 10SM CLR 11/02 A3046 RMK AO2 T01060020
KGNC 160235Z AUTO 05004KT 10SM CLR 11/02 A3045 RMK AO2 T01100018
KGNC 160215Z AUTO 06004KT 10SM CLR 12/01 A3045 RMK AO2 T01200012
KGNC 160155Z AUTO 05004KT 10SM CLR 12/01 A3045 RMK AO2 T01210009
KGNC 160135Z AUTO 06003KT 10SM CLR 13/01 A3044 RMK AO2 T01280007
KGNC 160115Z AUTO 06004KT 10SM CLR 13/01 A3044 RMK AO2 T01310005
KGNC 160055Z AUTO 06004KT 10SM CLR 14/00 A3043 RMK AO2 T01420000
KGNC 160035Z AUTO 06003KT 10SM CLR 15/M01 A3043 RMK AO2 T01501006
KGNC 160015Z AUTO 07004KT 10SM CLR 16/M01 A3042 RMK AO2 T01641007
KGNC 152355Z AUTO 06003KT 10SM CLR 18/M01 A3042 RMK AO2 T01821014 10212 20169
KGNC 152335Z AUTO 07005KT 10SM CLR 19/M02 A3042 RMK AO2 T01931019
KGNC 152315Z AUTO 04006KT 10SM CLR 20/M02 A3041 RMK AO2 T02001024
KGNC 152255Z AUTO 05004KT 10SM CLR 20/M03 A3041 RMK AO2 T02031027
KGNC 152235Z AUTO 05006KT 10SM CLR 21/M03 A3041 RMK AO2 T02051032
KGNC 152215Z AUTO 04006KT 10SM CLR 21/M02 A3042 RMK AO2 T02061023
KGNC 152155Z AUTO 04008KT 10SM CLR 21/M02 A3041 RMK AO2 T02081021
KGNC 152135Z AUTO 06006KT 10SM CLR 21/M01 A3041 RMK AO2 T02101015
KGNC 152115Z AUTO 07008KT 10SM CLR 21/M02 A3042 RMK AO2 T02071021
KGNC 152055Z AUTO 06010G14KT 10SM CLR 21/M02 A3042 RMK AO2 T02061018
KGNC 152035Z AUTO 06010G15KT 10SM CLR 20/M02 A3043 RMK AO2 T02021016
KGNC 152015Z AUTO 06008G15KT 10SM CLR 20/M01 A3043 RMK AO2 T02011014
KGNC 151955Z AUTO 07009G16KT 10SM CLR 20/M01 A3044 RMK AO2 T01991015
KGNC 151935Z AUTO 05010G14KT 10SM CLR 20/M01 A3045 RMK AO2 T01981009
KGNC 151915Z AUTO 06008G15KT 040V100 10SM CLR 19/M01 A3045 RMK AO2 T01931009
KGNC 151855Z AUTO 05009G15KT 10SM CLR 19/M01 A3046 RMK AO2 T01881007
KGNC 151835Z AUTO 02008KT 10SM CLR 18/00 A3048 RMK AO2 T01801003
KGNC 151815Z AUTO 06010KT 10SM CLR 18/00 A3049 RMK AO2 T01751001
KGNC 151755Z AUTO 03009KT 10SM CLR 17/00 A3050 RMK AO2 T01681002 10170 20085
KGNC 151735Z AUTO 04008KT 010V070 10SM CLR 17/00 A3050 RMK AO2 T01671001
KGNC 151715Z AUTO 07010G14KT 10SM CLR 16/00 A3052 RMK AO2 T01610002
KGNC 151655Z AUTO 04011G17KT 10SM CLR 16/00 A3052 RMK AO2 T01560002
KGNC 151635Z AUTO 03010G16KT 10SM CLR 15/00 A3052 RMK AO2 T01480004
KGNC 151615Z AUTO 02010G14KT 10SM CLR 14/01 A3052 RMK AO2 T01420005
KGNC 151555Z AUTO 02009G14KT 360V060 10SM CLR 14/01 A3052 RMK AO2 T01350007
KGNC 151535Z AUTO 05011G15KT 10SM CLR 13/01 A3053 RMK AO2 T01260008
KGNC 151515Z AUTO 02010G15KT 10SM CLR 12/01 A3052 RMK AO2 T01190006
KGNC 151455Z AUTO 02010G15KT 10SM CLR 11/01 A3051 RMK AO2 T01120010
KGNC 151435Z AUTO 36009KT 10SM CLR 10/01 A3050 RMK AO2 T00980010
KGNC 151415Z AUTO 35007KT 10SM CLR 09/01 A3049 RMK AO2 T00870010
KGNC 151355Z AUTO 35007KT 10SM CLR 09/01 A3048 RMK AO2 T00850006
KGNC 151335Z AUTO 36007KT 10SM CLR 09/00 A3046 RMK AO2 T00870000
KGNC 151315Z AUTO 01007KT 10SM CLR 09/00 A3044 RMK AO2 T00870000
KGNC 151255Z AUTO 02006KT 10SM CLR 09/00 A3043 RMK AO2 T00901001
KGNC 151235Z AUTO 02008KT 10SM CLR 09/00 A3041 RMK AO2 T00931001
KGNC 151215Z AUTO 02008KT 10SM CLR 10/00 A3040 RMK AO2 T00951001
KGNC 151155Z AUTO 03009G14KT 10SM SCT120 10/00 A3040 RMK AO2 60002 70002 T00991001 10230 20099
KGNC 151135Z AUTO 03011G16KT 10SM SCT110 10/00 A3039 RMK AO2 T01031001
KGNC 151115Z AUTO 03010G17KT 10SM SCT110 11/00 A3038 RMK AO2 T01050000
KGNC 151055Z AUTO 03011G19KT 10SM SCT100 SCT120 11/00 A3037 RMK AO2 T01060000
KGNC 151035Z AUTO 03012G17KT 10SM SCT100 SCT120 11/00 A3036 RMK AO2 T01101002
KGNC 151015Z AUTO 03013G19KT 10SM SCT100 12/00 A3035 RMK AO2 T01151003
KGNC 150955Z AUTO 03013G21KT 10SM SCT100 12/M01 A3034 RMK AO2 T01181006